sensor_id;sensor_type;location;lat;lon;timestamp;P1;durP1;ratioP1;P2;durP2;ratioP2
1436;SDS011;712;51.026;13.792;2022-09-09T00:00:37;2.38;;;2.10;;
1436;SDS011;712;51.026;13.792;2022-09-09T00:08:00;2.10;;;2.00;;
1436;SDS011;712;51.026;13.792;2022-09-09T00:13:16;2.30;;;2.20;;
1436;SDS011;712;51.026;13.792;2022-09-09T00:15:53;2.38;;;2.28;;
1436;SDS011;712;51.026;13.792;2022-09-09T00:18:22;2.20;;;2.10;;
1436;SDS011;712;51.026;13.792;2022-09-09T00:20:52;2.40;;;2.20;;
1436;SDS011;712;51.026;13.792;2022-09-09T00:23:25;2.28;;;2.08;;
1436;SDS011;712;51.026;13.792;2022-09-09T00:26:01;2.85;;;2.20;;
1436;SDS011;712;51.026;13.792;2022-09-09T00:28:27;2.60;;;2.50;;
1436;SDS011;712;51.026;13.792;2022-09-09T00:30:59;2.20;;;2.10;;
1436;SDS011;712;51.026;13.792;2022-09-09T00:33:26;2.20;;;2.10;;
1436;SDS011;712;51.026;13.792;2022-09-09T00:35:55;2.10;;;1.90;;
1436;SDS011;712;51.026;13.792;2022-09-09T00:38:25;2.10;;;2.00;;
1436;SDS011;712;51.026;13.792;2022-09-09T00:40:53;2.72;;;2.60;;
1436;SDS011;712;51.026;13.792;2022-09-09T00:51:25;2.15;;;2.05;;
1436;SDS011;712;51.026;13.792;2022-09-09T00:56:20;2.30;;;2.20;;
1436;SDS011;712;51.026;13.792;2022-09-09T00:58:49;2.43;;;2.23;;
1436;SDS011;712;51.026;13.792;2022-09-09T01:01:21;2.95;;;2.65;;
1436;SDS011;712;51.026;13.792;2022-09-09T01:11:21;2.30;;;2.10;;
1436;SDS011;712;51.026;13.792;2022-09-09T01:13:47;2.20;;;2.00;;
1436;SDS011;712;51.026;13.792;2022-09-09T01:16:14;2.13;;;2.03;;
1436;SDS011;712;51.026;13.792;2022-09-09T01:18:44;2.40;;;2.20;;
1436;SDS011;712;51.026;13.792;2022-09-09T01:21:17;2.50;;;2.30;;
1436;SDS011;712;51.026;13.792;2022-09-09T01:23:48;2.20;;;2.00;;
1436;SDS011;712;51.026;13.792;2022-09-09T01:26:34;2.40;;;2.20;;
1436;SDS011;712;51.026;13.792;2022-09-09T01:29:00;3.05;;;2.72;;
1436;SDS011;712;51.026;13.792;2022-09-09T01:31:29;2.83;;;2.30;;
1436;SDS011;712;51.026;13.792;2022-09-09T01:33:56;2.20;;;2.10;;
1436;SDS011;712;51.026;13.792;2022-09-09T01:36:24;2.40;;;2.13;;
1436;SDS011;712;51.026;13.792;2022-09-09T01:38:51;2.10;;;2.00;;
1436;SDS011;712;51.026;13.792;2022-09-09T01:41:16;2.10;;;1.90;;
1436;SDS011;712;51.026;13.792;2022-09-09T01:43:41;3.03;;;2.37;;
1436;SDS011;712;51.026;13.792;2022-09-09T01:46:06;2.30;;;2.10;;
1436;SDS011;712;51.026;13.792;2022-09-09T01:48:32;2.30;;;2.20;;
1436;SDS011;712;51.026;13.792;2022-09-09T01:50:58;3.20;;;2.40;;
1436;SDS011;712;51.026;13.792;2022-09-09T01:53:23;3.80;;;2.80;;
1436;SDS011;712;51.026;13.792;2022-09-09T01:58:31;2.50;;;2.30;;
1436;SDS011;712;51.026;13.792;2022-09-09T02:03:27;2.42;;;2.22;;
1436;SDS011;712;51.026;13.792;2022-09-09T02:05:55;2.85;;;2.65;;
1436;SDS011;712;51.026;13.792;2022-09-09T02:08:26;3.40;;;2.40;;
1436;SDS011;712;51.026;13.792;2022-09-09T02:11:13;2.47;;;2.28;;
1436;SDS011;712;51.026;13.792;2022-09-09T02:13:38;2.65;;;2.45;;
1436;SDS011;712;51.026;13.792;2022-09-09T02:16:07;2.63;;;2.43;;
1436;SDS011;712;51.026;13.792;2022-09-09T02:18:34;3.30;;;2.40;;
1436;SDS011;712;51.026;13.792;2022-09-09T02:21:01;3.20;;;2.60;;
1436;SDS011;712;51.026;13.792;2022-09-09T02:23:27;2.50;;;2.30;;
1436;SDS011;712;51.026;13.792;2022-09-09T02:25:53;2.95;;;2.30;;
1436;SDS011;712;51.026;13.792;2022-09-09T02:28:20;3.25;;;2.50;;
1436;SDS011;712;51.026;13.792;2022-09-09T02:30:46;3.20;;;2.45;;
1436;SDS011;712;51.026;13.792;2022-09-09T02:33:13;3.00;;;2.70;;
1436;SDS011;712;51.026;13.792;2022-09-09T02:35:39;2.55;;;2.35;;
1436;SDS011;712;51.026;13.792;2022-09-09T02:38:06;2.60;;;2.17;;
1436;SDS011;712;51.026;13.792;2022-09-09T02:40:32;3.40;;;2.10;;
1436;SDS011;712;51.026;13.792;2022-09-09T02:42:57;2.60;;;2.40;;
1436;SDS011;712;51.026;13.792;2022-09-09T02:45:25;2.45;;;2.25;;
1436;SDS011;712;51.026;13.792;2022-09-09T02:50:34;2.58;;;2.28;;
1436;SDS011;712;51.026;13.792;2022-09-09T02:53:07;2.60;;;2.40;;
1436;SDS011;712;51.026;13.792;2022-09-09T02:55:37;2.45;;;2.30;;
1436;SDS011;712;51.026;13.792;2022-09-09T02:58:07;2.53;;;2.20;;
1436;SDS011;712;51.026;13.792;2022-09-09T03:00:35;2.97;;;2.60;;
1436;SDS011;712;51.026;13.792;2022-09-09T03:03:01;2.63;;;2.42;;
1436;SDS011;712;51.026;13.792;2022-09-09T03:05:26;2.60;;;2.40;;
1436;SDS011;712;51.026;13.792;2022-09-09T03:07:52;2.60;;;2.50;;
1436;SDS011;712;51.026;13.792;2022-09-09T03:10:18;2.50;;;2.40;;
1436;SDS011;712;51.026;13.792;2022-09-09T03:12:43;2.80;;;2.60;;
1436;SDS011;712;51.026;13.792;2022-09-09T03:15:08;2.50;;;2.30;;
1436;SDS011;712;51.026;13.792;2022-09-09T03:17:34;2.50;;;2.30;;
1436;SDS011;712;51.026;13.792;2022-09-09T03:20:00;2.50;;;2.30;;
1436;SDS011;712;51.026;13.792;2022-09-09T03:22:26;2.20;;;2.10;;
1436;SDS011;712;51.026;13.792;2022-09-09T03:24:51;2.80;;;2.50;;
1436;SDS011;712;51.026;13.792;2022-09-09T03:27:17;2.60;;;2.40;;
1436;SDS011;712;51.026;13.792;2022-09-09T03:29:42;1.90;;;1.80;;
1436;SDS011;712;51.026;13.792;2022-09-09T03:32:07;4.40;;;2.60;;
1436;SDS011;712;51.026;13.792;2022-09-09T03:34:35;3.33;;;2.60;;
1436;SDS011;712;51.026;13.792;2022-09-09T03:37:00;2.60;;;2.40;;
1436;SDS011;712;51.026;13.792;2022-09-09T03:39:25;2.80;;;2.40;;
1436;SDS011;712;51.026;13.792;2022-09-09T03:41:50;2.60;;;2.40;;
1436;SDS011;712;51.026;13.792;2022-09-09T03:44:15;3.97;;;2.80;;
1436;SDS011;712;51.026;13.792;2022-09-09T03:46:40;4.37;;;2.60;;
1436;SDS011;712;51.026;13.792;2022-09-09T03:49:06;3.90;;;3.40;;
1436;SDS011;712;51.026;13.792;2022-09-09T03:51:31;2.88;;;2.58;;
1436;SDS011;712;51.026;13.792;2022-09-09T03:53:56;2.80;;;2.60;;
1436;SDS011;712;51.026;13.792;2022-09-09T03:56:23;3.15;;;2.95;;
1436;SDS011;712;51.026;13.792;2022-09-09T03:58:48;2.60;;;2.50;;
1436;SDS011;712;51.026;13.792;2022-09-09T04:01:13;2.90;;;2.60;;
1436;SDS011;712;51.026;13.792;2022-09-09T04:03:39;3.35;;;3.08;;
1436;SDS011;712;51.026;13.792;2022-09-09T04:06:05;4.13;;;3.03;;
1436;SDS011;712;51.026;13.792;2022-09-09T04:08:31;3.00;;;2.80;;
1436;SDS011;712;51.026;13.792;2022-09-09T04:10:57;3.97;;;3.67;;
1436;SDS011;712;51.026;13.792;2022-09-09T04:13:23;3.55;;;3.25;;
1436;SDS011;712;51.026;13.792;2022-09-09T04:15:51;3.30;;;3.00;;
1436;SDS011;712;51.026;13.792;2022-09-09T04:18:17;3.50;;;3.20;;
1436;SDS011;712;51.026;13.792;2022-09-09T04:20:42;3.60;;;3.30;;
1436;SDS011;712;51.026;13.792;2022-09-09T04:23:08;4.40;;;3.50;;
1436;SDS011;712;51.026;13.792;2022-09-09T04:25:33;3.60;;;3.30;;
1436;SDS011;712;51.026;13.792;2022-09-09T04:27:59;3.30;;;3.07;;
1436;SDS011;712;51.026;13.792;2022-09-09T04:30:24;3.70;;;3.40;;
1436;SDS011;712;51.026;13.792;2022-09-09T04:32:50;3.45;;;3.25;;
1436;SDS011;712;51.026;13.792;2022-09-09T04:35:15;3.60;;;3.30;;
1436;SDS011;712;51.026;13.792;2022-09-09T04:37:40;3.90;;;3.50;;
1436;SDS011;712;51.026;13.792;2022-09-09T04:40:06;3.60;;;3.30;;
1436;SDS011;712;51.026;13.792;2022-09-09T04:42:36;3.90;;;3.60;;
1436;SDS011;712;51.026;13.792;2022-09-09T04:45:02;3.90;;;3.60;;
1436;SDS011;712;51.026;13.792;2022-09-09T04:47:27;3.80;;;3.50;;
1436;SDS011;712;51.026;13.792;2022-09-09T04:49:52;3.55;;;3.25;;
1436;SDS011;712;51.026;13.792;2022-09-09T04:52:19;3.80;;;3.50;;
1436;SDS011;712;51.026;13.792;2022-09-09T04:54:44;3.90;;;3.60;;
1436;SDS011;712;51.026;13.792;2022-09-09T04:57:10;4.30;;;3.07;;
1436;SDS011;712;51.026;13.792;2022-09-09T04:59:35;3.10;;;2.90;;
1436;SDS011;712;51.026;13.792;2022-09-09T05:02:00;3.97;;;3.67;;
1436;SDS011;712;51.026;13.792;2022-09-09T05:04:28;4.95;;;3.55;;
1436;SDS011;712;51.026;13.792;2022-09-09T05:06:53;3.90;;;3.40;;
1436;SDS011;712;51.026;13.792;2022-09-09T05:09:19;4.40;;;4.10;;
1436;SDS011;712;51.026;13.792;2022-09-09T05:11:44;4.10;;;3.80;;
1436;SDS011;712;51.026;13.792;2022-09-09T05:14:09;3.35;;;3.00;;
1436;SDS011;712;51.026;13.792;2022-09-09T05:16:36;3.50;;;3.20;;
1436;SDS011;712;51.026;13.792;2022-09-09T05:19:01;3.42;;;3.22;;
1436;SDS011;712;51.026;13.792;2022-09-09T05:21:28;3.10;;;2.90;;
1436;SDS011;712;51.026;13.792;2022-09-09T05:23:53;3.10;;;2.90;;
1436;SDS011;712;51.026;13.792;2022-09-09T05:26:19;3.37;;;3.07;;
1436;SDS011;712;51.026;13.792;2022-09-09T05:28:44;3.00;;;2.80;;
1436;SDS011;712;51.026;13.792;2022-09-09T05:31:10;2.90;;;2.70;;
1436;SDS011;712;51.026;13.792;2022-09-09T05:33:38;3.30;;;3.00;;
1436;SDS011;712;51.026;13.792;2022-09-09T05:36:08;3.60;;;3.30;;
1436;SDS011;712;51.026;13.792;2022-09-09T05:38:35;3.03;;;2.72;;
1436;SDS011;712;51.026;13.792;2022-09-09T05:41:01;3.00;;;2.72;;
1436;SDS011;712;51.026;13.792;2022-09-09T05:43:27;3.83;;;3.10;;
1436;SDS011;712;51.026;13.792;2022-09-09T05:46:07;3.20;;;2.90;;
1436;SDS011;712;51.026;13.792;2022-09-09T05:48:36;3.55;;;2.85;;
1436;SDS011;712;51.026;13.792;2022-09-09T05:51:02;3.33;;;3.13;;
1436;SDS011;712;51.026;13.792;2022-09-09T05:53:27;3.20;;;3.00;;
1436;SDS011;712;51.026;13.792;2022-09-09T05:56:03;2.73;;;2.53;;
1436;SDS011;712;51.026;13.792;2022-09-09T05:58:29;3.10;;;2.80;;
1436;SDS011;712;51.026;13.792;2022-09-09T06:00:59;2.92;;;2.55;;
1436;SDS011;712;51.026;13.792;2022-09-09T06:03:25;3.60;;;2.95;;
1436;SDS011;712;51.026;13.792;2022-09-09T06:05:56;3.30;;;3.00;;
1436;SDS011;712;51.026;13.792;2022-09-09T06:08:22;3.00;;;2.80;;
1436;SDS011;712;51.026;13.792;2022-09-09T06:10:47;3.42;;;3.10;;
1436;SDS011;712;51.026;13.792;2022-09-09T06:13:12;4.10;;;2.90;;
1436;SDS011;712;51.026;13.792;2022-09-09T06:15:38;4.20;;;3.10;;
1436;SDS011;712;51.026;13.792;2022-09-09T06:18:03;3.08;;;2.78;;
1436;SDS011;712;51.026;13.792;2022-09-09T06:20:28;2.90;;;2.70;;
1436;SDS011;712;51.026;13.792;2022-09-09T06:22:55;3.10;;;2.90;;
1436;SDS011;712;51.026;13.792;2022-09-09T06:25:20;3.10;;;2.90;;
1436;SDS011;712;51.026;13.792;2022-09-09T06:27:48;3.53;;;3.23;;
1436;SDS011;712;51.026;13.792;2022-09-09T06:30:14;3.80;;;2.83;;
1436;SDS011;712;51.026;13.792;2022-09-09T06:32:39;3.40;;;3.10;;
1436;SDS011;712;51.026;13.792;2022-09-09T06:35:04;3.50;;;2.70;;
1436;SDS011;712;51.026;13.792;2022-09-09T06:37:29;3.20;;;2.90;;
1436;SDS011;712;51.026;13.792;2022-09-09T06:39:55;3.33;;;2.83;;
1436;SDS011;712;51.026;13.792;2022-09-09T06:42:20;3.40;;;2.90;;
1436;SDS011;712;51.026;13.792;2022-09-09T06:44:45;2.90;;;2.70;;
1436;SDS011;712;51.026;13.792;2022-09-09T06:47:10;3.10;;;2.90;;
1436;SDS011;712;51.026;13.792;2022-09-09T06:49:35;3.37;;;3.17;;
1436;SDS011;712;51.026;13.792;2022-09-09T06:52:01;3.38;;;3.00;;
1436;SDS011;712;51.026;13.792;2022-09-09T06:54:26;3.30;;;2.70;;
1436;SDS011;712;51.026;13.792;2022-09-09T06:56:51;3.30;;;2.80;;
1436;SDS011;712;51.026;13.792;2022-09-09T06:59:16;3.30;;;3.00;;
1436;SDS011;712;51.026;13.792;2022-09-09T07:01:42;3.20;;;2.90;;
1436;SDS011;712;51.026;13.792;2022-09-09T07:04:08;2.90;;;2.70;;
1436;SDS011;712;51.026;13.792;2022-09-09T07:06:36;3.25;;;2.60;;
1436;SDS011;712;51.026;13.792;2022-09-09T07:09:03;2.97;;;2.50;;
1436;SDS011;712;51.026;13.792;2022-09-09T07:11:30;3.10;;;2.60;;
1436;SDS011;712;51.026;13.792;2022-09-09T07:13:56;3.00;;;2.40;;
1436;SDS011;712;51.026;13.792;2022-09-09T07:16:22;4.43;;;2.60;;
1436;SDS011;712;51.026;13.792;2022-09-09T07:18:50;3.03;;;2.50;;
1436;SDS011;712;51.026;13.792;2022-09-09T07:21:16;3.70;;;3.00;;
1436;SDS011;712;51.026;13.792;2022-09-09T07:23:41;3.13;;;2.70;;
1436;SDS011;712;51.026;13.792;2022-09-09T07:26:10;3.25;;;2.50;;
1436;SDS011;712;51.026;13.792;2022-09-09T07:28:36;2.90;;;2.70;;
1436;SDS011;712;51.026;13.792;2022-09-09T07:31:02;2.80;;;2.60;;
1436;SDS011;712;51.026;13.792;2022-09-09T07:33:28;2.83;;;2.53;;
1436;SDS011;712;51.026;13.792;2022-09-09T07:36:01;2.70;;;2.50;;
1436;SDS011;712;51.026;13.792;2022-09-09T07:38:26;3.30;;;2.30;;
1436;SDS011;712;51.026;13.792;2022-09-09T07:40:51;2.60;;;2.40;;
1436;SDS011;712;51.026;13.792;2022-09-09T07:43:16;2.60;;;2.40;;
1436;SDS011;712;51.026;13.792;2022-09-09T07:45:43;3.45;;;2.58;;
1436;SDS011;712;51.026;13.792;2022-09-09T07:48:09;2.33;;;2.13;;
1436;SDS011;712;51.026;13.792;2022-09-09T07:50:34;2.67;;;2.20;;
1436;SDS011;712;51.026;13.792;2022-09-09T07:52:59;2.70;;;2.40;;
1436;SDS011;712;51.026;13.792;2022-09-09T07:55:25;2.30;;;2.10;;
1436;SDS011;712;51.026;13.792;2022-09-09T07:57:52;3.90;;;2.05;;
1436;SDS011;712;51.026;13.792;2022-09-09T08:00:17;2.20;;;2.00;;
1436;SDS011;712;51.026;13.792;2022-09-09T08:02:43;2.40;;;2.20;;
1436;SDS011;712;51.026;13.792;2022-09-09T08:05:08;2.50;;;2.30;;
1436;SDS011;712;51.026;13.792;2022-09-09T08:07:34;3.90;;;2.40;;
1436;SDS011;712;51.026;13.792;2022-09-09T08:09:59;2.83;;;2.00;;
1436;SDS011;712;51.026;13.792;2022-09-09T08:12:24;2.80;;;2.00;;
1436;SDS011;712;51.026;13.792;2022-09-09T08:14:50;2.63;;;2.40;;
1436;SDS011;712;51.026;13.792;2022-09-09T08:17:16;3.22;;;2.40;;
1436;SDS011;712;51.026;13.792;2022-09-09T08:19:41;2.43;;;2.20;;
1436;SDS011;712;51.026;13.792;2022-09-09T08:22:06;2.50;;;2.30;;
1436;SDS011;712;51.026;13.792;2022-09-09T08:24:32;2.60;;;2.40;;
1436;SDS011;712;51.026;13.792;2022-09-09T08:26:57;3.00;;;2.33;;
1436;SDS011;712;51.026;13.792;2022-09-09T08:29:22;3.00;;;2.70;;
1436;SDS011;712;51.026;13.792;2022-09-09T08:31:49;2.50;;;2.30;;
1436;SDS011;712;51.026;13.792;2022-09-09T08:34:14;3.77;;;2.70;;
1436;SDS011;712;51.026;13.792;2022-09-09T08:36:41;3.37;;;2.80;;
1436;SDS011;712;51.026;13.792;2022-09-09T08:39:07;2.60;;;2.40;;
1436;SDS011;712;51.026;13.792;2022-09-09T08:52:22;3.08;;;2.30;;
1436;SDS011;712;51.026;13.792;2022-09-09T08:54:48;2.35;;;2.15;;
1436;SDS011;712;51.026;13.792;2022-09-09T08:57:15;3.88;;;2.70;;
1436;SDS011;712;51.026;13.792;2022-09-09T08:59:43;2.60;;;2.30;;
1436;SDS011;712;51.026;13.792;2022-09-09T09:02:15;3.40;;;2.30;;
1436;SDS011;712;51.026;13.792;2022-09-09T09:07:32;3.03;;;2.20;;
1436;SDS011;712;51.026;13.792;2022-09-09T09:10:02;2.90;;;2.10;;
1436;SDS011;712;51.026;13.792;2022-09-09T09:12:30;2.72;;;2.20;;
1436;SDS011;712;51.026;13.792;2022-09-09T09:14:58;2.20;;;2.00;;
1436;SDS011;712;51.026;13.792;2022-09-09T09:17:25;2.50;;;2.03;;
1436;SDS011;712;51.026;13.792;2022-09-09T09:19:51;2.20;;;1.97;;
1436;SDS011;712;51.026;13.792;2022-09-09T09:22:20;2.03;;;1.90;;
1436;SDS011;712;51.026;13.792;2022-09-09T09:27:16;2.08;;;1.67;;
1436;SDS011;712;51.026;13.792;2022-09-09T09:29:43;2.75;;;1.60;;
1436;SDS011;712;51.026;13.792;2022-09-09T09:32:10;2.67;;;1.40;;
1436;SDS011;712;51.026;13.792;2022-09-09T09:34:37;2.13;;;1.70;;
1436;SDS011;712;51.026;13.792;2022-09-09T09:37:07;2.30;;;1.70;;
1436;SDS011;712;51.026;13.792;2022-09-09T09:39:37;2.35;;;1.58;;
1436;SDS011;712;51.026;13.792;2022-09-09T09:42:11;1.95;;;1.30;;
1436;SDS011;712;51.026;13.792;2022-09-09T09:44:39;1.73;;;1.20;;
1436;SDS011;712;51.026;13.792;2022-09-09T09:47:08;1.80;;;1.30;;
1436;SDS011;712;51.026;13.792;2022-09-09T09:49:34;2.25;;;1.48;;
1436;SDS011;712;51.026;13.792;2022-09-09T09:52:02;2.13;;;1.60;;
1436;SDS011;712;51.026;13.792;2022-09-09T09:54:28;2.78;;;1.75;;
1436;SDS011;712;51.026;13.792;2022-09-09T09:56:54;2.38;;;1.77;;
1436;SDS011;712;51.026;13.792;2022-09-09T09:59:21;1.50;;;1.40;;
1436;SDS011;712;51.026;13.792;2022-09-09T10:01:46;2.70;;;1.90;;
1436;SDS011;712;51.026;13.792;2022-09-09T10:04:16;2.20;;;1.60;;
1436;SDS011;712;51.026;13.792;2022-09-09T10:06:41;2.00;;;1.40;;
1436;SDS011;712;51.026;13.792;2022-09-09T10:09:23;1.60;;;1.30;;
1436;SDS011;712;51.026;13.792;2022-09-09T10:12:04;2.70;;;1.50;;
1436;SDS011;712;51.026;13.792;2022-09-09T10:20:11;1.90;;;1.60;;
1436;SDS011;712;51.026;13.792;2022-09-09T10:22:40;3.22;;;1.75;;
1436;SDS011;712;51.026;13.792;2022-09-09T10:25:31;4.20;;;1.80;;
1436;SDS011;712;51.026;13.792;2022-09-09T10:28:08;2.00;;;1.80;;
1436;SDS011;712;51.026;13.792;2022-09-09T10:33:22;2.25;;;1.60;;
1436;SDS011;712;51.026;13.792;2022-09-09T10:36:12;2.08;;;1.85;;
1436;SDS011;712;51.026;13.792;2022-09-09T10:38:42;2.53;;;1.80;;
1436;SDS011;712;51.026;13.792;2022-09-09T10:43:48;1.90;;;1.50;;
1436;SDS011;712;51.026;13.792;2022-09-09T10:54:33;2.77;;;1.77;;
1436;SDS011;712;51.026;13.792;2022-09-09T10:57:03;2.33;;;1.90;;
1436;SDS011;712;51.026;13.792;2022-09-09T10:59:33;1.90;;;1.50;;
1436;SDS011;712;51.026;13.792;2022-09-09T11:02:02;2.17;;;1.98;;
1436;SDS011;712;51.026;13.792;2022-09-09T11:04:30;1.90;;;1.80;;
1436;SDS011;712;51.026;13.792;2022-09-09T11:06:59;3.20;;;1.80;;
1436;SDS011;712;51.026;13.792;2022-09-09T11:09:29;1.80;;;1.70;;
1436;SDS011;712;51.026;13.792;2022-09-09T11:11:57;4.85;;;1.98;;
1436;SDS011;712;51.026;13.792;2022-09-09T11:16:50;1.65;;;1.40;;
1436;SDS011;712;51.026;13.792;2022-09-09T11:19:22;2.60;;;1.77;;
1436;SDS011;712;51.026;13.792;2022-09-09T11:21:49;1.88;;;1.60;;
1436;SDS011;712;51.026;13.792;2022-09-09T11:26:44;2.53;;;1.63;;
1436;SDS011;712;51.026;13.792;2022-09-09T11:29:25;2.15;;;1.80;;
1436;SDS011;712;51.026;13.792;2022-09-09T11:41:49;3.15;;;2.17;;
1436;SDS011;712;51.026;13.792;2022-09-09T11:44:24;2.63;;;2.43;;
1436;SDS011;712;51.026;13.792;2022-09-09T11:46:51;2.67;;;2.17;;
1436;SDS011;712;51.026;13.792;2022-09-09T11:49:27;3.60;;;2.45;;
1436;SDS011;712;51.026;13.792;2022-09-09T11:51:53;2.55;;;1.98;;
1436;SDS011;712;51.026;13.792;2022-09-09T11:54:30;2.10;;;1.80;;
1436;SDS011;712;51.026;13.792;2022-09-09T11:56:55;2.20;;;1.83;;
1436;SDS011;712;51.026;13.792;2022-09-09T12:01:53;2.30;;;1.80;;
1436;SDS011;712;51.026;13.792;2022-09-09T12:06:53;1.92;;;1.80;;
1436;SDS011;712;51.026;13.792;2022-09-09T12:11:51;3.58;;;2.00;;
1436;SDS011;712;51.026;13.792;2022-09-09T12:14:36;3.40;;;1.70;;
1436;SDS011;712;51.026;13.792;2022-09-09T12:19:41;1.92;;;1.80;;
1436;SDS011;712;51.026;13.792;2022-09-09T12:22:19;1.90;;;1.80;;
1436;SDS011;712;51.026;13.792;2022-09-09T12:24:49;2.10;;;1.90;;
1436;SDS011;712;51.026;13.792;2022-09-09T12:27:20;2.20;;;2.00;;
1436;SDS011;712;51.026;13.792;2022-09-09T12:29:51;3.33;;;1.77;;
1436;SDS011;712;51.026;13.792;2022-09-09T12:32:22;2.13;;;1.60;;
1436;SDS011;712;51.026;13.792;2022-09-09T12:34:48;2.00;;;1.90;;
1436;SDS011;712;51.026;13.792;2022-09-09T12:37:34;2.45;;;1.95;;
1436;SDS011;712;51.026;13.792;2022-09-09T12:40:01;2.90;;;1.85;;
1436;SDS011;712;51.026;13.792;2022-09-09T12:42:27;2.83;;;1.90;;
1436;SDS011;712;51.026;13.792;2022-09-09T12:44:57;2.13;;;1.70;;
1436;SDS011;712;51.026;13.792;2022-09-09T12:47:24;1.80;;;1.70;;
1436;SDS011;712;51.026;13.792;2022-09-09T12:49:51;2.10;;;1.90;;
1436;SDS011;712;51.026;13.792;2022-09-09T12:52:23;1.70;;;1.60;;
1436;SDS011;712;51.026;13.792;2022-09-09T12:54:49;2.30;;;1.60;;
1436;SDS011;712;51.026;13.792;2022-09-09T12:57:16;3.17;;;1.90;;
1436;SDS011;712;51.026;13.792;2022-09-09T12:59:43;2.30;;;1.90;;
1436;SDS011;712;51.026;13.792;2022-09-09T13:02:22;1.63;;;1.53;;
1436;SDS011;712;51.026;13.792;2022-09-09T13:04:48;2.80;;;1.70;;
1436;SDS011;712;51.026;13.792;2022-09-09T13:07:15;2.00;;;1.70;;
1436;SDS011;712;51.026;13.792;2022-09-09T13:09:41;1.58;;;1.48;;
1436;SDS011;712;51.026;13.792;2022-09-09T13:12:07;1.90;;;1.80;;
1436;SDS011;712;51.026;13.792;2022-09-09T13:14:35;2.58;;;1.92;;
1436;SDS011;712;51.026;13.792;2022-09-09T13:17:03;2.63;;;1.70;;
1436;SDS011;712;51.026;13.792;2022-09-09T13:19:34;2.80;;;1.73;;
1436;SDS011;712;51.026;13.792;2022-09-09T13:22:10;2.93;;;2.00;;
1436;SDS011;712;51.026;13.792;2022-09-09T13:24:37;2.10;;;1.90;;
1436;SDS011;712;51.026;13.792;2022-09-09T13:27:03;2.07;;;1.87;;
1436;SDS011;712;51.026;13.792;2022-09-09T13:29:29;2.10;;;1.90;;
1436;SDS011;712;51.026;13.792;2022-09-09T13:32:03;2.40;;;2.00;;
1436;SDS011;712;51.026;13.792;2022-09-09T13:34:30;2.08;;;1.80;;
1436;SDS011;712;51.026;13.792;2022-09-09T13:36:58;2.05;;;1.85;;
1436;SDS011;712;51.026;13.792;2022-09-09T13:39:24;1.98;;;1.58;;
1436;SDS011;712;51.026;13.792;2022-09-09T13:41:49;1.90;;;1.67;;
1436;SDS011;712;51.026;13.792;2022-09-09T13:44:17;3.50;;;1.93;;
1436;SDS011;712;51.026;13.792;2022-09-09T13:46:44;2.10;;;1.90;;
1436;SDS011;712;51.026;13.792;2022-09-09T13:51:42;2.00;;;1.58;;
1436;SDS011;712;51.026;13.792;2022-09-09T13:54:11;1.75;;;1.65;;
1436;SDS011;712;51.026;13.792;2022-09-09T13:56:37;1.70;;;1.58;;
1436;SDS011;712;51.026;13.792;2022-09-09T13:59:04;1.70;;;1.60;;
1436;SDS011;712;51.026;13.792;2022-09-09T14:01:29;1.90;;;1.70;;
1436;SDS011;712;51.026;13.792;2022-09-09T14:03:54;1.60;;;1.50;;
1436;SDS011;712;51.026;13.792;2022-09-09T14:06:20;1.60;;;1.27;;
1436;SDS011;712;51.026;13.792;2022-09-09T14:08:46;2.55;;;1.70;;
1436;SDS011;712;51.026;13.792;2022-09-09T14:11:12;1.90;;;1.30;;
1436;SDS011;712;51.026;13.792;2022-09-09T14:13:37;1.60;;;1.50;;
1436;SDS011;712;51.026;13.792;2022-09-09T14:16:02;2.90;;;1.80;;
1436;SDS011;712;51.026;13.792;2022-09-09T14:18:27;1.50;;;1.40;;
1436;SDS011;712;51.026;13.792;2022-09-09T14:20:53;1.90;;;1.30;;
1436;SDS011;712;51.026;13.792;2022-09-09T14:23:18;2.08;;;1.30;;
1436;SDS011;712;51.026;13.792;2022-09-09T14:25:43;1.65;;;1.55;;
1436;SDS011;712;51.026;13.792;2022-09-09T14:28:10;2.33;;;1.60;;
1436;SDS011;712;51.026;13.792;2022-09-09T14:30:36;1.47;;;1.37;;
1436;SDS011;712;51.026;13.792;2022-09-09T14:33:01;2.50;;;1.70;;
1436;SDS011;712;51.026;13.792;2022-09-09T14:35:27;1.93;;;1.60;;
1436;SDS011;712;51.026;13.792;2022-09-09T14:37:52;2.10;;;1.50;;
1436;SDS011;712;51.026;13.792;2022-09-09T14:40:18;2.05;;;1.30;;
1436;SDS011;712;51.026;13.792;2022-09-09T14:42:43;1.60;;;1.30;;
1436;SDS011;712;51.026;13.792;2022-09-09T14:45:08;1.60;;;1.23;;
1436;SDS011;712;51.026;13.792;2022-09-09T14:47:34;1.60;;;1.50;;
1436;SDS011;712;51.026;13.792;2022-09-09T14:49:59;2.10;;;1.20;;
1436;SDS011;712;51.026;13.792;2022-09-09T14:52:25;1.73;;;1.30;;
1436;SDS011;712;51.026;13.792;2022-09-09T14:54:51;1.40;;;1.30;;
1436;SDS011;712;51.026;13.792;2022-09-09T14:57:16;2.00;;;1.40;;
1436;SDS011;712;51.026;13.792;2022-09-09T14:59:41;2.00;;;1.30;;
1436;SDS011;712;51.026;13.792;2022-09-09T15:02:07;2.05;;;1.50;;
1436;SDS011;712;51.026;13.792;2022-09-09T15:04:33;1.63;;;1.40;;
1436;SDS011;712;51.026;13.792;2022-09-09T15:06:58;2.20;;;1.40;;
1436;SDS011;712;51.026;13.792;2022-09-09T15:09:23;1.30;;;1.20;;
1436;SDS011;712;51.026;13.792;2022-09-09T15:11:49;1.57;;;1.40;;
1436;SDS011;712;51.026;13.792;2022-09-09T15:14:14;1.70;;;1.13;;
1436;SDS011;712;51.026;13.792;2022-09-09T15:16:39;1.50;;;1.30;;
1436;SDS011;712;51.026;13.792;2022-09-09T15:19:05;1.50;;;1.40;;
1436;SDS011;712;51.026;13.792;2022-09-09T15:21:31;1.48;;;1.30;;
1436;SDS011;712;51.026;13.792;2022-09-09T15:23:57;1.30;;;1.20;;
1436;SDS011;712;51.026;13.792;2022-09-09T15:26:22;1.83;;;1.37;;
1436;SDS011;712;51.026;13.792;2022-09-09T15:28:47;2.10;;;1.30;;
1436;SDS011;712;51.026;13.792;2022-09-09T15:31:18;3.42;;;1.70;;
1436;SDS011;712;51.026;13.792;2022-09-09T15:33:47;2.10;;;1.80;;
1436;SDS011;712;51.026;13.792;2022-09-09T15:38:38;2.00;;;1.90;;
1436;SDS011;712;51.026;13.792;2022-09-09T15:41:03;2.73;;;1.70;;
1436;SDS011;712;51.026;13.792;2022-09-09T15:43:28;1.80;;;1.70;;
1436;SDS011;712;51.026;13.792;2022-09-09T15:45:54;2.28;;;2.08;;
1436;SDS011;712;51.026;13.792;2022-09-09T15:48:23;3.60;;;2.38;;
1436;SDS011;712;51.026;13.792;2022-09-09T15:51:03;2.53;;;2.33;;
1436;SDS011;712;51.026;13.792;2022-09-09T15:53:29;2.75;;;1.90;;
1436;SDS011;712;51.026;13.792;2022-09-09T15:55:54;3.13;;;2.10;;
1436;SDS011;712;51.026;13.792;2022-09-09T15:58:20;2.10;;;1.90;;
1436;SDS011;712;51.026;13.792;2022-09-09T16:00:45;2.50;;;1.80;;
1436;SDS011;712;51.026;13.792;2022-09-09T16:03:10;2.20;;;1.90;;
1436;SDS011;712;51.026;13.792;2022-09-09T16:05:37;1.90;;;1.70;;
1436;SDS011;712;51.026;13.792;2022-09-09T16:08:02;2.15;;;1.80;;
1436;SDS011;712;51.026;13.792;2022-09-09T16:10:28;3.45;;;1.42;;
1436;SDS011;712;51.026;13.792;2022-09-09T16:12:54;2.75;;;2.20;;
1436;SDS011;712;51.026;13.792;2022-09-09T16:15:19;2.00;;;1.70;;
1436;SDS011;712;51.026;13.792;2022-09-09T16:17:47;2.53;;;2.20;;
1436;SDS011;712;51.026;13.792;2022-09-09T16:20:12;2.20;;;2.00;;
1436;SDS011;712;51.026;13.792;2022-09-09T16:22:38;1.83;;;1.73;;
1436;SDS011;712;51.026;13.792;2022-09-09T16:25:03;2.72;;;1.50;;
1436;SDS011;712;51.026;13.792;2022-09-09T16:27:28;2.40;;;2.10;;
1436;SDS011;712;51.026;13.792;2022-09-09T16:29:53;1.70;;;1.60;;
1436;SDS011;712;51.026;13.792;2022-09-09T16:32:18;3.10;;;1.90;;
1436;SDS011;712;51.026;13.792;2022-09-09T16:34:44;2.20;;;1.53;;
1436;SDS011;712;51.026;13.792;2022-09-09T16:37:10;2.40;;;1.60;;
1436;SDS011;712;51.026;13.792;2022-09-09T16:39:36;1.57;;;1.47;;
1436;SDS011;712;51.026;13.792;2022-09-09T16:42:01;2.25;;;1.40;;
1436;SDS011;712;51.026;13.792;2022-09-09T16:44:27;2.90;;;1.80;;
1436;SDS011;712;51.026;13.792;2022-09-09T16:46:53;2.35;;;1.95;;
1436;SDS011;712;51.026;13.792;2022-09-09T16:49:18;1.90;;;1.80;;
1436;SDS011;712;51.026;13.792;2022-09-09T16:51:44;2.30;;;1.90;;
1436;SDS011;712;51.026;13.792;2022-09-09T16:54:10;2.25;;;2.10;;